Time;durP1;ratioP1;P1;durP2;ratioP2;P2;SDS_P1;SDS_P2;PMS_P1;PMS_P2;Temp;Humidity;BMP_temperature;BMP_pressure;BME280_temperature;BME280_humidity;BME280_pressure;Samples;Min_cycle;Max_cycle;Signal;HPM_P1;HPM_P2
2023/12/23 00:02:21;;;;;;;1.60;1.00;;;6.50;99.90;;;;;;4928472;29;20490;-78
2023/12/23 00:04:46;;;;;;;3.13;0.77;;;6.50;99.90;;;;;;4916376;29;20194;-79
2023/12/23 00:07:14;;;;;;;1.10;0.70;;;6.50;99.90;;;;;;4902580;29;20198;-80
2023/12/23 00:09:41;;;;;;;3.60;1.07;;;6.50;99.90;;;;;;4912614;29;20197;-78
2023/12/23 00:12:08;;;;;;;1.13;0.90;;;6.50;99.90;;;;;;4907838;29;20886;-78
2023/12/23 00:14:35;;;;;;;2.23;0.80;;;6.50;99.90;;;;;;4938402;29;20517;-79
2023/12/23 00:17:01;;;;;;;4.73;0.83;;;6.50;99.90;;;;;;4906407;29;20427;-79
2023/12/23 00:19:27;;;;;;;2.10;1.00;;;6.50;99.90;;;;;;4909235;29;20427;-78
2023/12/23 00:21:54;;;;;;;1.23;1.07;;;6.50;99.90;;;;;;4916253;29;20494;-77
2023/12/23 00:24:21;;;;;;;2.40;0.87;;;6.50;99.90;;;;;;4920983;29;20203;-76
2023/12/23 00:26:47;;;;;;;1.80;0.90;;;6.50;99.90;;;;;;4898291;29;20474;-78
2023/12/23 00:29:12;;;;;;;1.23;0.83;;;6.50;99.90;;;;;;4907806;29;20427;-76
2023/12/23 00:31:38;;;;;;;2.60;0.80;;;6.50;99.90;;;;;;4900165;29;20278;-77
2023/12/23 00:34:04;;;;;;;2.07;0.90;;;6.50;99.90;;;;;;4906713;29;20191;-77
2023/12/23 00:36:30;;;;;;;1.43;0.90;;;6.40;99.90;;;;;;4902980;29;20223;-77
2023/12/23 00:38:55;;;;;;;1.13;0.83;;;6.40;99.90;;;;;;4899652;29;20487;-79
2023/12/23 00:41:22;;;;;;;1.17;0.70;;;6.40;99.90;;;;;;4900878;29;20206;-78
2023/12/23 00:43:48;;;;;;;1.20;0.83;;;6.40;99.90;;;;;;4917913;29;20323;-77
2023/12/23 00:46:14;;;;;;;1.47;0.80;;;6.40;99.90;;;;;;4929269;29;20451;-77
2023/12/23 00:48:41;;;;;;;1.80;0.87;;;6.40;99.90;;;;;;4903151;29;20419;-76
2023/12/23 00:51:08;;;;;;;2.40;0.80;;;6.40;99.90;;;;;;4918850;29;20430;-76
2023/12/23 00:53:34;;;;;;;1.10;0.80;;;6.30;99.90;;;;;;4892408;29;20297;-76
2023/12/23 00:56:00;;;;;;;1.60;0.90;;;6.30;99.90;;;;;;4912671;29;20880;-78
2023/12/23 00:58:26;;;;;;;1.47;0.80;;;6.40;99.90;;;;;;4898280;29;20206;-77
2023/12/23 01:00:52;;;;;;;1.50;0.87;;;6.30;99.90;;;;;;4931643;29;20454;-77
2023/12/23 01:03:17;;;;;;;2.63;0.83;;;6.40;99.90;;;;;;4911280;29;20201;-76
2023/12/23 01:05:43;;;;;;;1.03;0.80;;;6.30;99.90;;;;;;4893796;29;20526;-77
2023/12/23 01:08:09;;;;;;;2.03;0.80;;;6.30;99.90;;;;;;4908611;29;20198;-76
2023/12/23 01:10:35;;;;;;;1.93;0.90;;;6.30;99.90;;;;;;4911869;29;20191;-76
2023/12/23 01:13:00;;;;;;;2.13;0.60;;;6.30;99.90;;;;;;4893642;29;20190;-77
2023/12/23 01:15:26;;;;;;;1.10;0.60;;;6.30;99.90;;;;;;4892688;29;20542;-77
2023/12/23 01:17:52;;;;;;;1.50;0.70;;;6.30;99.90;;;;;;4926938;29;20252;-77
2023/12/23 01:20:18;;;;;;;1.77;0.60;;;6.40;99.90;;;;;;4914899;29;20259;-78
2023/12/23 01:22:44;;;;;;;2.40;0.90;;;6.30;99.90;;;;;;4903710;29;20436;-77
2023/12/23 01:25:10;;;;;;;1.23;0.60;;;6.40;99.90;;;;;;4906127;29;20459;-77
2023/12/23 01:27:36;;;;;;;2.60;0.97;;;6.40;99.90;;;;;;4910811;29;20213;-76
2023/12/23 01:30:02;;;;;;;3.70;1.00;;;6.40;99.90;;;;;;4903490;29;20178;-78
2023/12/23 01:32:28;;;;;;;1.77;0.90;;;6.40;99.90;;;;;;4901603;29;20438;-76
2023/12/23 01:34:53;;;;;;;1.10;0.93;;;6.40;99.90;;;;;;4891512;29;20450;-78
2023/12/23 01:37:19;;;;;;;4.47;0.97;;;6.40;99.90;;;;;;4902036;29;20209;-77
2023/12/23 01:39:45;;;;;;;2.37;1.10;;;6.40;99.90;;;;;;4930507;29;20185;-78
2023/12/23 01:42:12;;;;;;;2.53;1.00;;;6.40;99.90;;;;;;4930510;29;20239;-78
2023/12/23 01:44:37;;;;;;;1.33;1.00;;;6.40;99.90;;;;;;4914945;29;20434;-78
2023/12/23 01:47:05;;;;;;;1.37;0.83;;;6.40;99.90;;;;;;4940508;29;20189;-76
2023/12/23 01:49:31;;;;;;;3.07;1.07;;;6.40;99.90;;;;;;4947433;29;20225;-78
2023/12/23 01:51:59;;;;;;;1.23;0.80;;;6.40;99.90;;;;;;4927436;29;20442;-77
2023/12/23 01:54:26;;;;;;;1.60;0.70;;;6.40;99.90;;;;;;4925757;29;20426;-77
2023/12/23 01:56:53;;;;;;;1.03;0.70;;;6.50;99.90;;;;;;4914931;29;20450;-76
2023/12/23 01:59:19;;;;;;;2.40;1.07;;;6.50;99.90;;;;;;4940878;29;20410;-77
2023/12/23 02:01:45;;;;;;;1.13;0.70;;;6.50;99.90;;;;;;4904429;29;20473;-78
2023/12/23 02:04:11;;;;;;;1.10;0.70;;;6.50;99.90;;;;;;4925650;29;20429;-76
2023/12/23 02:06:37;;;;;;;1.83;1.10;;;6.60;99.90;;;;;;4922713;29;20901;-76
2023/12/23 02:09:03;;;;;;;1.20;0.70;;;6.60;99.90;;;;;;4920554;29;20430;-78
2023/12/23 02:11:50;;;;;;;1.17;0.63;;;6.60;99.90;;;;;;4928802;29;20197;-77
2023/12/23 02:14:40;;;;;;;1.00;0.70;;;6.50;99.90;;;;;;4924459;29;20452;-76
2023/12/23 02:17:06;;;;;;;1.97;0.90;;;6.60;99.90;;;;;;4938360;29;20421;-76
2023/12/23 02:19:32;;;;;;;1.00;0.80;;;6.60;99.90;;;;;;4925264;29;20718;-77
2023/12/23 02:21:58;;;;;;;2.93;1.03;;;6.60;99.90;;;;;;4925922;29;20477;-77
2023/12/23 02:24:23;;;;;;;2.43;1.20;;;6.60;99.90;;;;;;4941929;29;20411;-77
2023/12/23 02:26:53;;;;;;;3.27;1.00;;;6.60;99.90;;;;;;4915884;29;20214;-77
2023/12/23 02:29:21;;;;;;;1.73;1.03;;;6.70;99.90;;;;;;4913579;29;20197;-78
2023/12/23 02:31:48;;;;;;;1.23;0.90;;;6.70;99.90;;;;;;4927746;29;20498;-80
2023/12/23 02:34:14;;;;;;;1.23;0.70;;;6.80;99.90;;;;;;4919907;29;20415;-77
2023/12/23 02:36:40;;;;;;;1.30;0.70;;;6.80;99.90;;;;;;4931646;29;20517;-78
2023/12/23 02:39:05;;;;;;;0.90;0.60;;;6.80;99.90;;;;;;4920088;29;20422;-76
2023/12/23 02:41:31;;;;;;;1.83;0.70;;;6.80;99.90;;;;;;4926276;29;20254;-77
2023/12/23 02:43:57;;;;;;;0.90;0.60;;;6.90;99.90;;;;;;4944266;29;20189;-76
2023/12/23 02:46:24;;;;;;;1.10;0.70;;;6.90;99.90;;;;;;4942271;29;20206;-77
2023/12/23 02:48:49;;;;;;;1.30;0.93;;;6.90;99.90;;;;;;4921735;29;20494;-77
2023/12/23 02:51:15;;;;;;;1.20;0.77;;;6.90;99.90;;;;;;4946636;29;20194;-78
2023/12/23 02:53:40;;;;;;;1.77;1.00;;;7.00;99.90;;;;;;4927742;29;20232;-77
2023/12/23 02:56:07;;;;;;;3.27;1.20;;;7.00;99.90;;;;;;4940954;29;20201;-77
2023/12/23 02:58:33;;;;;;;2.20;1.80;;;7.00;99.90;;;;;;4932885;29;20410;-77
2023/12/23 03:00:59;;;;;;;2.80;1.67;;;7.10;99.90;;;;;;4927510;29;20586;-76
2023/12/23 03:03:25;;;;;;;4.00;1.90;;;7.20;99.90;;;;;;4919046;29;20250;-77
2023/12/23 03:05:53;;;;;;;2.27;1.67;;;7.20;99.90;;;;;;4912922;29;20622;-78
2023/12/23 03:08:18;;;;;;;4.93;2.03;;;7.20;99.90;;;;;;4905513;29;20183;-77
2023/12/23 03:10:45;;;;;;;6.90;3.60;;;7.30;99.90;;;;;;4942508;29;20457;-78
2023/12/23 03:13:10;;;;;;;8.47;4.20;;;7.30;99.90;;;;;;4948204;29;20188;-76
2023/12/23 03:15:36;;;;;;;7.00;3.87;;;7.40;99.90;;;;;;4935855;29;20526;-76
2023/12/23 03:18:02;;;;;;;9.13;4.93;;;7.40;99.90;;;;;;4929739;29;20189;-78
2023/12/23 03:20:28;;;;;;;10.90;5.03;;;7.50;99.90;;;;;;4937050;29;20199;-77
2023/12/23 03:22:54;;;;;;;11.40;5.93;;;7.50;99.90;;;;;;4921371;29;20575;-77
2023/12/23 03:25:20;;;;;;;11.70;6.50;;;7.50;99.90;;;;;;4933234;29;20460;-77
2023/12/23 03:27:46;;;;;;;14.87;7.47;;;7.50;99.90;;;;;;4911516;29;20222;-77
2023/12/23 03:30:12;;;;;;;13.53;7.27;;;7.50;99.90;;;;;;4928362;29;20423;-78
2023/12/23 03:32:37;;;;;;;12.33;6.87;;;7.60;99.90;;;;;;4924383;29;20204;-76
2023/12/23 03:35:04;;;;;;;13.90;8.20;;;7.60;99.90;;;;;;4924453;29;20445;-78
2023/12/23 03:37:30;;;;;;;13.40;7.50;;;7.60;99.90;;;;;;4943353;29;20453;-76
2023/12/23 03:39:55;;;;;;;13.50;7.80;;;7.60;99.90;;;;;;4925144;29;20427;-77
2023/12/23 03:42:21;;;;;;;10.70;6.53;;;7.60;99.90;;;;;;4906674;29;20217;-77
2023/12/23 03:44:48;;;;;;;14.03;7.07;;;7.70;99.90;;;;;;4942679;28;20231;-79
2023/12/23 03:47:14;;;;;;;15.63;7.60;;;7.70;99.90;;;;;;4935526;29;20201;-78
2023/12/23 03:49:40;;;;;;;13.80;8.27;;;7.70;99.90;;;;;;4938188;29;20430;-76
2023/12/23 03:52:05;;;;;;;14.70;8.27;;;7.70;99.90;;;;;;4939304;29;20507;-76
2023/12/23 03:54:31;;;;;;;14.20;6.23;;;7.70;99.90;;;;;;4940085;29;20202;-78
2023/12/23 03:56:57;;;;;;;14.43;8.20;;;7.70;99.90;;;;;;4928142;29;20221;-77
2023/12/23 03:59:22;;;;;;;17.33;8.57;;;7.70;99.90;;;;;;4939707;29;20193;-77
2023/12/23 04:01:48;;;;;;;13.50;7.50;;;7.70;99.90;;;;;;4920118;29;20636;-77
2023/12/23 04:04:14;;;;;;;12.93;7.30;;;7.70;99.90;;;;;;4923379;29;20425;-77
2023/12/23 04:06:40;;;;;;;14.13;8.50;;;7.70;99.90;;;;;;4937669;29;20287;-76
2023/12/23 04:09:06;;;;;;;17.13;8.17;;;7.70;99.90;;;;;;4929684;29;20228;-77
2023/12/23 04:11:36;;;;;;;15.63;7.73;;;7.70;99.90;;;;;;4917027;29;20426;-77
2023/12/23 04:14:01;;;;;;;12.20;8.20;;;7.70;99.90;;;;;;4922982;29;20296;-79
2023/12/23 04:16:27;;;;;;;15.83;7.23;;;7.70;99.90;;;;;;4908548;29;20586;-77
2023/12/23 04:18:53;;;;;;;13.87;7.50;;;7.70;99.90;;;;;;4927040;29;20417;-77
2023/12/23 04:21:20;;;;;;;15.63;7.37;;;7.70;99.90;;;;;;4917563;29;20214;-77
2023/12/23 04:23:45;;;;;;;13.23;7.40;;;7.70;99.90;;;;;;4914246;29;20459;-76
2023/12/23 04:26:13;;;;;;;18.37;8.63;;;7.70;99.90;;;;;;4939603;29;20449;-76
2023/12/23 04:28:39;;;;;;;18.83;8.27;;;7.60;99.90;;;;;;4935668;29;20219;-77
2023/12/23 04:31:05;;;;;;;17.17;8.40;;;7.60;99.90;;;;;;4919614;29;20426;-77
2023/12/23 04:33:31;;;;;;;15.77;8.30;;;7.60;99.90;;;;;;4925591;29;20190;-77
2023/12/23 04:35:57;;;;;;;18.13;8.33;;;7.60;99.90;;;;;;4908512;29;20450;-76
2023/12/23 04:38:23;;;;;;;21.37;7.33;;;7.60;99.90;;;;;;4910347;29;20425;-77
2023/12/23 04:40:49;;;;;;;15.07;8.00;;;7.60;99.90;;;;;;4917543;29;20979;-77
2023/12/23 04:43:14;;;;;;;16.03;8.10;;;7.60;99.90;;;;;;4908384;29;20257;-77
2023/12/23 04:45:40;;;;;;;15.67;7.67;;;7.60;99.90;;;;;;4908515;29;20217;-77
2023/12/23 04:48:06;;;;;;;15.80;6.77;;;7.60;99.90;;;;;;4891999;29;20221;-77
2023/12/23 04:50:32;;;;;;;16.33;6.70;;;7.60;99.90;;;;;;4910360;29;20421;-77
2023/12/23 04:52:58;;;;;;;10.13;5.47;;;7.60;99.90;;;;;;4914392;29;20899;-76
2023/12/23 04:55:26;;;;;;;11.03;5.60;;;7.60;99.90;;;;;;4922565;29;20206;-77
2023/12/23 04:57:52;;;;;;;11.73;5.93;;;7.60;99.90;;;;;;4921722;29;20429;-77
2023/12/23 05:00:18;;;;;;;9.23;5.53;;;7.60;99.90;;;;;;4935023;29;20487;-76
2023/12/23 05:02:44;;;;;;;9.20;4.80;;;7.60;99.90;;;;;;4920232;29;20229;-77
2023/12/23 05:05:10;;;;;;;7.17;4.97;;;7.60;99.90;;;;;;4910103;29;20270;-77
2023/12/23 05:07:35;;;;;;;8.37;4.57;;;7.60;99.90;;;;;;4922953;29;20273;-78
2023/12/23 05:10:01;;;;;;;12.23;4.50;;;7.60;99.90;;;;;;4913762;29;20265;-76
2023/12/23 05:12:27;;;;;;;9.30;4.73;;;7.60;99.90;;;;;;4900273;29;20665;-77
2023/12/23 05:14:52;;;;;;;6.00;3.63;;;7.60;99.90;;;;;;4907500;29;20503;-78
2023/12/23 05:17:18;;;;;;;7.30;4.00;;;7.60;99.90;;;;;;4925865;29;20192;-77
2023/12/23 05:19:47;;;;;;;8.50;4.33;;;7.60;99.90;;;;;;4927229;29;20444;-76
2023/12/23 05:22:13;;;;;;;7.20;4.47;;;7.50;99.90;;;;;;4905208;29;20290;-75
2023/12/23 05:24:38;;;;;;;8.70;4.10;;;7.50;99.90;;;;;;4924527;29;20445;-75
2023/12/23 05:27:05;;;;;;;7.20;4.23;;;7.50;99.90;;;;;;4916195;29;20885;-78
2023/12/23 05:29:31;;;;;;;7.17;3.93;;;7.50;99.90;;;;;;4926805;29;20190;-77
2023/12/23 05:31:57;;;;;;;6.57;3.60;;;7.50;99.90;;;;;;4916740;29;20472;-77
2023/12/23 05:34:23;;;;;;;10.70;4.10;;;7.50;99.90;;;;;;4922878;29;20262;-78
2023/12/23 05:36:48;;;;;;;4.50;3.43;;;7.50;99.90;;;;;;4943086;29;20521;-77
2023/12/23 05:39:14;;;;;;;5.10;3.20;;;7.50;99.90;;;;;;4926567;29;20517;-76
2023/12/23 05:41:40;;;;;;;9.27;3.07;;;7.50;99.90;;;;;;4927607;29;20221;-77
2023/12/23 05:44:07;;;;;;;6.60;3.87;;;7.50;99.90;;;;;;4929093;29;20197;-76
2023/12/23 05:46:33;;;;;;;5.60;3.20;;;7.50;99.90;;;;;;4923375;29;20290;-77
2023/12/23 05:48:59;;;;;;;4.93;3.30;;;7.50;99.90;;;;;;4940973;29;20434;-77
2023/12/23 05:51:24;;;;;;;6.33;3.60;;;7.60;99.90;;;;;;4922384;29;20198;-76
2023/12/23 05:53:50;;;;;;;7.83;3.70;;;7.50;99.90;;;;;;4938415;29;20257;-78
2023/12/23 05:56:15;;;;;;;7.57;3.20;;;7.50;99.90;;;;;;4926924;29;20222;-77
2023/12/23 05:58:41;;;;;;;10.10;4.30;;;7.50;99.90;;;;;;4921428;29;20197;-76
2023/12/23 06:01:06;;;;;;;7.13;4.00;;;7.50;99.90;;;;;;4939351;29;20598;-77
2023/12/23 06:03:32;;;;;;;8.67;3.57;;;7.50;99.90;;;;;;4935663;29;20277;-78
2023/12/23 06:05:58;;;;;;;8.77;4.17;;;7.50;99.90;;;;;;4917341;29;20708;-77
2023/12/23 06:08:23;;;;;;;10.53;4.10;;;7.60;99.90;;;;;;4927126;29;20214;-77
2023/12/23 06:10:49;;;;;;;9.50;4.60;;;7.60;99.90;;;;;;4933278;29;20192;-77
2023/12/23 06:13:14;;;;;;;10.97;4.80;;;7.50;99.90;;;;;;4919751;29;20200;-77
2023/12/23 06:15:40;;;;;;;11.40;4.97;;;7.60;99.90;;;;;;4935043;29;20506;-78
2023/12/23 06:18:06;;;;;;;12.57;4.70;;;7.60;99.90;;;;;;4932992;29;20234;-77
2023/12/23 06:20:31;;;;;;;10.70;5.27;;;7.50;99.90;;;;;;4937219;29;20209;-77
2023/12/23 06:22:57;;;;;;;9.93;5.40;;;7.50;99.90;;;;;;4935283;29;20269;-77
2023/12/23 06:25:23;;;;;;;10.87;4.93;;;7.60;99.90;;;;;;4933276;29;20209;-76
2023/12/23 06:27:49;;;;;;;7.93;4.53;;;7.60;99.90;;;;;;4931880;29;20187;-78
2023/12/23 06:30:15;;;;;;;7.27;4.60;;;7.60;99.90;;;;;;4920681;29;20297;-77
2023/12/23 06:32:40;;;;;;;9.30;4.77;;;7.60;99.90;;;;;;4917968;29;20476;-77
2023/12/23 06:35:06;;;;;;;11.03;5.13;;;7.60;99.90;;;;;;4928057;29;20214;-77
2023/12/23 06:37:32;;;;;;;9.20;5.03;;;7.60;99.90;;;;;;4935944;29;20236;-76
2023/12/23 06:39:59;;;;;;;9.60;5.40;;;7.60;99.90;;;;;;4925877;29;20410;-78
2023/12/23 06:42:25;;;;;;;12.60;5.43;;;7.60;99.90;;;;;;4934840;29;20587;-77
2023/12/23 06:44:51;;;;;;;9.77;5.10;;;7.70;99.90;;;;;;4923558;29;20467;-78
2023/12/23 06:47:16;;;;;;;14.93;6.50;;;7.60;99.90;;;;;;4927903;29;20506;-79
2023/12/23 06:49:42;;;;;;;10.73;5.97;;;7.70;99.90;;;;;;4926013;29;20467;-78
2023/12/23 06:52:07;;;;;;;7.77;5.30;;;7.70;99.90;;;;;;4919646;29;20258;-76
2023/12/23 06:54:33;;;;;;;12.43;5.33;;;7.70;99.90;;;;;;4938508;29;20185;-77
2023/12/23 06:56:58;;;;;;;8.40;4.20;;;7.70;99.90;;;;;;4923743;29;20255;-77
2023/12/23 06:59:24;;;;;;;7.10;4.70;;;7.70;99.90;;;;;;4925614;29;20186;-78
2023/12/23 07:01:50;;;;;;;10.73;5.87;;;7.70;99.90;;;;;;4917973;29;20273;-77
2023/12/23 07:04:16;;;;;;;12.80;4.60;;;7.70;99.90;;;;;;4932605;29;20202;-77
2023/12/23 07:06:41;;;;;;;8.37;5.00;;;7.70;99.90;;;;;;4910831;29;20459;-77
2023/12/23 07:09:07;;;;;;;11.20;5.83;;;7.70;99.90;;;;;;4903241;29;20197;-76
2023/12/23 07:11:33;;;;;;;6.67;4.60;;;7.70;99.90;;;;;;4918123;29;20191;-78
2023/12/23 07:13:59;;;;;;;8.40;4.67;;;7.70;99.90;;;;;;4914084;29;20261;-78
2023/12/23 07:16:24;;;;;;;9.27;4.90;;;7.70;99.90;;;;;;4929341;29;20477;-77
2023/12/23 07:18:50;;;;;;;6.90;4.60;;;7.70;99.90;;;;;;4927254;29;20205;-78
2023/12/23 07:21:16;;;;;;;12.00;5.87;;;7.70;99.90;;;;;;4897961;29;20205;-77
2023/12/23 07:23:41;;;;;;;11.50;5.83;;;7.70;99.90;;;;;;4924532;29;20218;-77
2023/12/23 07:26:12;;;;;;;7.57;5.00;;;7.70;99.90;;;;;;4942678;29;20202;-78
2023/12/23 07:28:38;;;;;;;8.23;5.30;;;7.70;99.90;;;;;;4922243;29;20205;-78
2023/12/23 07:31:03;;;;;;;12.57;4.97;;;7.80;99.90;;;;;;4918762;29;20501;-78
2023/12/23 07:33:29;;;;;;;6.00;4.60;;;7.80;99.90;;;;;;4919329;29;20189;-77
2023/12/23 07:35:54;;;;;;;11.03;5.10;;;7.80;99.90;;;;;;4935342;29;20222;-77
2023/12/23 07:38:21;;;;;;;6.43;3.80;;;7.80;99.90;;;;;;4908093;29;20599;-78
2023/12/23 07:40:47;;;;;;;8.60;4.87;;;7.80;99.90;;;;;;4920571;29;20236;-76
2023/12/23 07:43:13;;;;;;;8.20;5.50;;;7.80;99.90;;;;;;4931438;29;20398;-77
2023/12/23 07:45:38;;;;;;;10.83;6.17;;;7.80;99.90;;;;;;4921113;29;20453;-77
2023/12/23 07:48:05;;;;;;;8.67;5.37;;;7.80;99.90;;;;;;4942562;29;20190;-78
2023/12/23 07:50:30;;;;;;;9.63;5.13;;;7.80;99.90;;;;;;4914558;29;20225;-78
2023/12/23 07:52:56;;;;;;;8.60;5.10;;;7.90;99.90;;;;;;4921748;29;20469;-79
2023/12/23 07:55:22;;;;;;;10.30;6.43;;;7.80;99.90;;;;;;4914217;29;20209;-78
2023/12/23 07:57:47;;;;;;;9.17;5.83;;;7.90;99.90;;;;;;4942261;29;20178;-79
2023/12/23 08:00:14;;;;;;;11.07;5.63;;;7.90;99.90;;;;;;4917337;29;20250;-77
2023/12/23 08:02:40;;;;;;;13.67;6.13;;;7.90;99.90;;;;;;4934911;29;20205;-78
2023/12/23 08:05:05;;;;;;;13.60;6.30;;;7.90;99.90;;;;;;4916027;29;20447;-78
2023/12/23 08:07:31;;;;;;;11.20;5.60;;;7.90;99.90;;;;;;4920791;29;20283;-78
2023/12/23 08:09:56;;;;;;;8.47;5.20;;;7.90;99.90;;;;;;4920125;29;20182;-77
2023/12/23 08:12:23;;;;;;;10.50;5.20;;;7.90;99.90;;;;;;4922899;29;20194;-80
2023/12/23 08:14:49;;;;;;;11.37;6.00;;;7.90;99.90;;;;;;4930418;29;20194;-79
2023/12/23 08:17:15;;;;;;;11.00;5.90;;;7.90;99.90;;;;;;4947996;29;20398;-79
2023/12/23 08:19:40;;;;;;;10.07;6.00;;;7.90;99.90;;;;;;4925097;29;20186;-78
2023/12/23 08:22:06;;;;;;;12.63;6.17;;;7.90;99.90;;;;;;4920741;29;20253;-78
2023/12/23 08:24:32;;;;;;;11.53;6.50;;;7.90;99.90;;;;;;4932296;29;20185;-78
2023/12/23 08:27:00;;;;;;;10.97;6.27;;;7.90;99.90;;;;;;4951875;29;20217;-79
2023/12/23 08:29:25;;;;;;;12.90;6.13;;;7.90;99.90;;;;;;4941228;29;20435;-79
2023/12/23 08:31:51;;;;;;;18.70;7.60;;;8.00;99.90;;;;;;4928099;29;20453;-79
2023/12/23 08:34:18;;;;;;;15.77;7.27;;;7.90;99.90;;;;;;4925114;29;20445;-77
2023/12/23 08:36:44;;;;;;;12.83;7.53;;;8.00;99.90;;;;;;4918550;29;20222;-80
2023/12/23 08:39:10;;;;;;;14.10;7.60;;;7.90;99.90;;;;;;4917886;29;20514;-78
2023/12/23 08:41:36;;;;;;;13.80;6.90;;;8.00;99.90;;;;;;4895770;29;20466;-78
2023/12/23 08:44:02;;;;;;;14.23;7.50;;;8.00;99.90;;;;;;4904129;29;20715;-78
2023/12/23 08:46:28;;;;;;;17.73;6.90;;;8.00;99.90;;;;;;4906489;29;20260;-76
2023/12/23 08:48:54;;;;;;;12.13;6.60;;;8.00;99.90;;;;;;4919695;29;20755;-79
2023/12/23 08:51:20;;;;;;;11.47;6.37;;;8.00;99.90;;;;;;4905810;29;20422;-78
2023/12/23 08:53:46;;;;;;;11.13;6.47;;;8.00;99.90;;;;;;4922375;29;20222;-77
2023/12/23 08:56:12;;;;;;;19.13;7.70;;;8.00;99.90;;;;;;4907578;29;20451;-78
2023/12/23 08:58:37;;;;;;;17.50;7.20;;;8.00;99.90;;;;;;4922428;29;20420;-78
2023/12/23 09:01:03;;;;;;;12.27;6.40;;;8.00;99.90;;;;;;4920769;29;20259;-78
2023/12/23 09:03:30;;;;;;;12.93;6.17;;;8.00;99.90;;;;;;4894844;29;20174;-78
2023/12/23 09:05:58;;;;;;;13.90;6.57;;;8.10;99.90;;;;;;4908328;29;20214;-78
2023/12/23 09:08:26;;;;;;;16.03;7.17;;;8.10;99.90;;;;;;4906176;29;20408;-78
2023/12/23 09:10:53;;;;;;;9.50;6.07;;;8.00;99.90;;;;;;4916955;29;20450;-81
2023/12/23 09:13:18;;;;;;;16.33;7.40;;;8.00;99.90;;;;;;4924425;29;20210;-78
2023/12/23 09:15:44;;;;;;;14.83;7.23;;;8.00;99.90;;;;;;4924099;29;20465;-79
2023/12/23 09:18:10;;;;;;;13.63;7.60;;;8.00;99.90;;;;;;4922664;29;20208;-78
2023/12/23 09:20:35;;;;;;;14.73;6.67;;;8.10;99.90;;;;;;4931262;29;20197;-80
2023/12/23 09:23:01;;;;;;;21.10;8.20;;;8.10;99.90;;;;;;4938399;29;20470;-80
2023/12/23 09:25:27;;;;;;;20.20;6.70;;;8.00;99.90;;;;;;4935849;29;20449;-78
2023/12/23 09:27:55;;;;;;;21.57;7.40;;;8.00;99.90;;;;;;4941208;29;20178;-79
2023/12/23 09:30:21;;;;;;;19.37;7.30;;;8.00;99.90;;;;;;4918685;29;20434;-79
2023/12/23 09:32:47;;;;;;;12.73;6.43;;;8.00;99.90;;;;;;4926121;29;20413;-80
2023/12/23 09:35:14;;;;;;;15.40;6.53;;;8.00;99.90;;;;;;4926015;29;20194;-81
2023/12/23 09:37:45;;;;;;;17.40;7.43;;;8.00;99.90;;;;;;4928921;29;20190;-82
2023/12/23 09:40:12;;;;;;;13.30;6.50;;;8.00;99.90;;;;;;4915908;29;20509;-79
2023/12/23 09:42:39;;;;;;;23.57;7.83;;;8.10;99.90;;;;;;4931519;29;20441;-79
2023/12/23 09:45:06;;;;;;;15.90;7.60;;;8.10;99.90;;;;;;4927320;29;20465;-79
2023/12/23 09:47:33;;;;;;;13.33;7.93;;;8.10;99.90;;;;;;4924634;29;20426;-81
2023/12/23 09:50:01;;;;;;;19.70;7.43;;;8.10;99.90;;;;;;4916822;29;20401;-81
2023/12/23 09:52:29;;;;;;;14.67;8.00;;;8.10;99.90;;;;;;4923528;29;20477;-78
2023/12/23 09:54:58;;;;;;;13.40;6.87;;;8.10;99.90;;;;;;4916006;29;20438;-81
2023/12/23 09:57:26;;;;;;;12.40;6.83;;;8.10;99.90;;;;;;4946581;29;20407;-81
2023/12/23 10:00:00;;;;;;;17.40;7.27;;;8.10;99.90;;;;;;4927290;29;20426;-81
2023/12/23 10:02:26;;;;;;;24.13;8.40;;;8.10;99.90;;;;;;4916329;29;20453;-82
2023/12/23 10:04:57;;;;;;;12.83;7.53;;;8.10;99.90;;;;;;4916877;29;20429;-82
2023/12/23 10:07:23;;;;;;;14.53;8.13;;;8.10;99.90;;;;;;4926033;29;20428;-81
2023/12/23 10:09:50;;;;;;;16.03;7.37;;;8.20;99.90;;;;;;4909510;29;20430;-82
2023/12/23 10:12:22;;;;;;;15.87;7.03;;;8.20;99.90;;;;;;4939884;29;20190;-82
2023/12/23 10:17:38;;;;;;;18.93;7.60;;;8.20;99.90;;;;;;5047276;23;20589;-80
2023/12/23 10:20:05;;;;;;;18.27;7.77;;;8.30;99.90;;;;;;4914598;29;20429;-80
2023/12/23 10:22:31;;;;;;;11.30;6.93;;;8.30;99.90;;;;;;4944231;29;20413;-81
2023/12/23 10:25:00;;;;;;;16.43;8.00;;;8.30;99.90;;;;;;4960916;29;20520;-82
2023/12/23 10:27:32;;;;;;;23.40;9.33;;;8.30;99.90;;;;;;4929179;29;20470;-81
2023/12/23 10:30:27;;;;;;;14.50;7.07;;;8.40;99.90;;;;;;4872487;29;20476;-79
2023/12/23 10:33:08;;;;;;;21.43;8.07;;;8.40;99.90;;;;;;4888772;29;20413;-80
2023/12/23 10:35:56;;;;;;;14.97;7.50;;;8.40;99.90;;;;;;4887838;29;20452;-79
2023/12/23 10:38:28;;;;;;;14.67;6.90;;;8.40;99.90;;;;;;4870774;29;20418;-80
2023/12/23 10:41:34;;;;;;;20.60;6.20;;;8.50;99.90;;;;;;4888283;29;20460;-80
2023/12/23 10:44:05;;;;;;;19.73;7.37;;;8.50;99.90;;;;;;4846475;29;20490;-82
2023/12/23 10:47:11;;;;;;;17.10;8.20;;;8.50;99.90;;;;;;4802885;29;20519;-81
2023/12/23 10:50:00;;;;;;;17.03;7.57;;;8.40;99.90;;;;;;4813010;29;20565;-82
2023/12/23 10:52:46;;;;;;;19.57;7.67;;;8.50;99.90;;;;;;4812697;29;20581;-80
2023/12/23 11:03:46;;;;;;;13.17;5.80;;;8.40;99.90;;;;;;4068641;26;20613;-81
2023/12/23 11:06:37;;;;;;;19.50;6.70;;;8.40;99.90;;;;;;4955896;29;20469;-82
2023/12/23 11:09:36;;;;;;;12.67;6.97;;;8.40;99.90;;;;;;4942952;29;20421;-80
2023/12/23 11:12:03;;;;;;;13.93;6.17;;;8.40;99.90;;;;;;4937086;28;20457;-82
2023/12/23 11:14:30;;;;;;;13.27;6.73;;;8.40;99.90;;;;;;4892512;29;20417;-82
2023/12/23 11:17:01;;;;;;;14.73;6.73;;;8.40;99.90;;;;;;4914831;29;20474;-80
2023/12/23 11:19:49;;;;;;;12.70;6.10;;;8.40;99.90;;;;;;4918715;29;20442;-81
2023/12/23 11:22:47;;;;;;;8.87;5.43;;;8.50;99.90;;;;;;4944072;29;20472;-81
2023/12/23 11:25:42;;;;;;;23.30;5.97;;;8.50;99.90;;;;;;5009718;23;20497;-80
2023/12/23 11:28:10;;;;;;;9.50;5.30;;;8.40;99.90;;;;;;4882183;29;20431;-80
2023/12/23 11:31:05;;;;;;;12.00;5.93;;;8.40;99.90;;;;;;4934487;29;20430;-83
2023/12/23 11:33:47;;;;;;;11.83;5.80;;;8.40;99.90;;;;;;4907020;29;20421;-83
2023/12/23 11:36:26;;;;;;;16.73;5.53;;;8.40;99.90;;;;;;4919098;28;20435;-81
2023/12/23 11:39:01;;;;;;;10.50;6.20;;;8.50;99.90;;;;;;4956852;28;20412;-82
2023/12/23 11:41:49;;;;;;;14.00;6.63;;;8.50;99.90;;;;;;4963297;28;20452;-82
2023/12/23 11:44:36;;;;;;;10.53;5.57;;;8.50;99.90;;;;;;4930414;29;20469;-81
2023/12/23 11:47:26;;;;;;;10.43;5.67;;;8.50;99.90;;;;;;5126985;23;20501;-80
2023/12/23 11:50:05;;;;;;;21.53;6.00;;;8.50;99.90;;;;;;4960581;29;20429;-81
2023/12/23 11:52:55;;;;;;;13.90;5.67;;;8.50;99.90;;;;;;4896107;29;20441;-81
2023/12/23 11:58:20;;;;;;;22.90;6.43;;;8.40;99.90;;;;;;1313665;26;20498;-83
2023/12/23 12:07:00;;;;;;;22.40;7.07;;;8.40;99.90;;;;;;5654051;23;20471;-82
2023/12/23 12:09:48;;;;;;;17.47;6.30;;;8.40;99.90;;;;;;4911224;29;20421;-81
2023/12/23 12:12:30;;;;;;;11.90;5.73;;;8.50;99.90;;;;;;4892707;29;20446;-81
2023/12/23 12:17:48;;;;;;;13.50;5.37;;;8.50;99.90;;;;;;4994523;23;20509;-80
2023/12/23 12:20:19;;;;;;;10.30;5.90;;;8.50;99.90;;;;;;4895008;29;20441;-80
2023/12/23 12:22:57;;;;;;;11.40;5.57;;;8.50;99.90;;;;;;4906088;29;20540;-81
2023/12/23 12:25:32;;;;;;;10.10;5.13;;;8.50;99.90;;;;;;4904497;29;20474;-81
2023/12/23 12:28:05;;;;;;;12.33;6.10;;;8.60;99.90;;;;;;4866818;29;20448;-80
2023/12/23 12:30:32;;;;;;;19.00;6.30;;;8.60;99.90;;;;;;4868436;29;20414;-80
2023/12/23 12:32:58;;;;;;;19.97;6.23;;;8.50;99.90;;;;;;4844039;29;20421;-82
2023/12/23 12:35:50;;;;;;;11.13;4.90;;;8.50;99.90;;;;;;4852706;29;20508;-83
2023/12/23 12:38:19;;;;;;;16.30;5.60;;;8.50;99.90;;;;;;4882206;29;20444;-82
2023/12/23 12:40:46;;;;;;;10.50;4.47;;;8.50;99.90;;;;;;4844237;29;20456;-81
2023/12/23 12:43:56;;;;;;;10.90;4.93;;;8.50;99.90;;;;;;4883756;29;20440;-82
2023/12/23 12:46:44;;;;;;;13.27;5.80;;;8.50;99.90;;;;;;5475945;23;20465;-81
2023/12/23 13:03:44;;;;;;;22.77;5.87;;;8.50;99.90;;;;;;5625504;23;20525;-82
2023/12/23 13:06:31;;;;;;;13.80;5.13;;;8.50;99.90;;;;;;4918269;28;20456;-82
2023/12/23 13:08:59;;;;;;;18.43;5.07;;;8.50;99.90;;;;;;4899219;28;20465;-82
2023/12/23 13:11:26;;;;;;;12.47;5.43;;;8.40;99.90;;;;;;4931343;28;20445;-80
2023/12/23 13:13:59;;;;;;;11.90;4.80;;;8.40;99.90;;;;;;4931088;28;20394;-80
2023/12/23 13:16:35;;;;;;;9.00;5.23;;;8.40;99.90;;;;;;4899281;28;20453;-82
2023/12/23 13:19:11;;;;;;;20.20;5.80;;;8.30;99.90;;;;;;4934811;29;20437;-82
2023/12/23 13:21:40;;;;;;;18.73;6.00;;;8.40;99.90;;;;;;4930381;29;20465;-81
2023/12/23 13:24:14;;;;;;;18.63;4.80;;;8.30;99.90;;;;;;4946634;29;20494;-81
2023/12/23 13:35:24;;;;;;;21.20;5.53;;;8.30;99.90;;;;;;4713430;23;20521;-81
2023/12/23 13:41:12;;;;;;;11.10;5.03;;;8.40;99.90;;;;;;3185020;27;20541;-81
2023/12/23 13:43:44;;;;;;;12.73;5.40;;;8.30;99.90;;;;;;4913873;29;20435;-82
2023/12/23 13:46:22;;;;;;;15.60;5.10;;;8.30;99.90;;;;;;4926304;29;20519;-80
2023/12/23 13:48:49;;;;;;;14.77;5.30;;;8.30;99.90;;;;;;4911740;29;20434;-80